createdAt,value
2023-03-17T00:04:38.488Z,2.85
2023-03-17T00:09:40.770Z,2.72
2023-03-17T00:14:44.498Z,3.38
2023-03-17T00:19:46.548Z,3.95
2023-03-17T00:24:48.430Z,4.22
2023-03-17T00:29:50.085Z,4.45
2023-03-17T00:34:53.716Z,4.00
2023-03-17T00:39:56.288Z,4.00
2023-03-17T00:45:01.270Z,3.92
2023-03-17T00:50:03.125Z,3.15
2023-03-17T00:55:07.929Z,4.22
2023-03-17T01:00:26.599Z,4.10
2023-03-17T01:05:28.618Z,3.00
2023-03-17T01:10:31.268Z,4.32
2023-03-17T01:15:34.573Z,3.85
2023-03-17T01:20:36.897Z,3.97
2023-03-17T01:25:41.430Z,4.25
2023-03-17T01:30:43.787Z,4.07
2023-03-17T01:35:46.104Z,4.43
2023-03-17T01:40:50.508Z,4.68
2023-03-17T01:46:11.787Z,5.07
2023-03-17T01:51:22.312Z,5.00
2023-03-17T01:56:24.713Z,5.20
2023-03-17T02:01:30.664Z,4.82
2023-03-17T02:06:32.778Z,5.25
2023-03-17T02:11:34.979Z,5.45
2023-03-17T02:16:37.353Z,5.10
2023-03-17T02:21:45.217Z,4.23
2023-03-17T02:26:49.561Z,4.72
2023-03-17T02:31:51.678Z,5.53
2023-03-17T02:36:53.412Z,6.18
2023-03-17T02:41:55.353Z,6.15
2023-03-17T02:46:59.516Z,6.45
2023-03-17T02:52:01.604Z,7.25
2023-03-17T02:57:03.825Z,6.72
2023-03-17T03:02:05.737Z,7.35
2023-03-17T03:07:07.533Z,7.38
2023-03-17T03:12:10.098Z,8.07
2023-03-17T03:17:11.880Z,8.07
2023-03-17T03:22:13.528Z,7.88
2023-03-17T03:27:15.116Z,9.00
2023-03-17T03:32:17.080Z,7.78
2023-03-17T03:37:18.689Z,8.00
2023-03-17T03:42:20.457Z,8.55
2023-03-17T03:47:22.331Z,8.52
2023-03-17T03:52:23.957Z,9.50
2023-03-17T03:57:25.608Z,9.27
2023-03-17T04:02:27.487Z,9.55
2023-03-17T04:07:29.300Z,9.27
2023-03-17T04:12:31.418Z,9.18
2023-03-17T04:17:33.244Z,9.30
2023-03-17T04:22:34.928Z,9.45
2023-03-17T04:27:37.507Z,9.80
2023-03-17T04:32:39.935Z,8.75
2023-03-17T04:37:42.013Z,8.73
2023-03-17T04:42:43.703Z,8.82
2023-03-17T04:47:48.458Z,9.38
2023-03-17T04:52:50.102Z,9.98
2023-03-17T04:57:51.806Z,10.07
2023-03-17T05:02:53.479Z,10.25
2023-03-17T05:07:55.372Z,9.60
2023-03-17T05:12:56.929Z,9.70
2023-03-17T05:17:58.591Z,8.32
2023-03-17T05:23:00.736Z,8.98
2023-03-17T05:28:03.108Z,9.15
2023-03-17T05:33:06.066Z,8.10
2023-03-17T05:38:08.965Z,8.73
2023-03-17T05:43:11.102Z,7.82
2023-03-17T05:48:13.191Z,8.20
2023-03-17T05:53:14.939Z,7.43
2023-03-17T05:58:17.045Z,7.28
2023-03-17T06:03:18.723Z,6.97
2023-03-17T06:08:20.381Z,6.70
2023-03-17T06:13:22.391Z,6.60
2023-03-17T06:18:24.250Z,6.35
2023-03-17T06:23:25.922Z,5.45
2023-03-17T06:28:27.551Z,5.57
2023-03-17T06:33:29.478Z,5.45
2023-03-17T06:38:31.300Z,4.93
2023-03-17T06:43:33.248Z,4.78
2023-03-17T06:48:35.263Z,5.35
2023-03-17T06:53:37.227Z,5.28
2023-03-17T06:58:39.880Z,4.95
2023-03-17T07:03:41.880Z,4.60
2023-03-17T07:08:43.586Z,4.57
2023-03-17T07:13:45.431Z,4.63
2023-03-17T07:18:47.273Z,4.20
2023-03-17T07:23:48.961Z,4.82
2023-03-17T07:28:50.825Z,4.75
2023-03-17T07:33:52.826Z,5.13
2023-03-17T07:38:55.397Z,4.20
2023-03-17T07:43:57.426Z,4.28
2023-03-17T07:48:59.143Z,4.60
2023-03-17T07:54:04.575Z,4.30
2023-03-17T07:59:10.994Z,4.88
2023-03-17T08:04:13.248Z,4.30
2023-03-17T08:09:14.920Z,4.28
2023-03-17T08:14:16.700Z,4.30
2023-03-17T08:19:18.584Z,3.85
2023-03-17T08:24:20.754Z,4.03
2023-03-17T08:29:23.761Z,3.97
2023-03-17T08:34:26.272Z,3.80
2023-03-17T08:39:27.874Z,4.50
2023-03-17T08:44:29.765Z,4.22
2023-03-17T08:49:34.600Z,3.92
2023-03-17T08:54:36.757Z,4.32
2023-03-17T08:59:38.821Z,4.25
2023-03-17T09:04:41.202Z,4.55
2023-03-17T09:09:42.883Z,4.35
2023-03-17T09:14:45.247Z,4.30
2023-03-17T09:19:48.213Z,4.15
2023-03-17T09:24:49.948Z,3.80
2023-03-17T09:29:51.899Z,4.45
2023-03-17T09:34:53.627Z,3.97
2023-03-17T09:39:55.725Z,3.97
2023-03-17T09:45:16.589Z,4.15
2023-03-17T09:50:29.306Z,3.75
2023-03-17T09:55:34.218Z,3.58
2023-03-17T10:00:35.973Z,3.35
2023-03-17T10:05:38.685Z,3.22
2023-03-17T10:10:49.176Z,3.63
2023-03-17T10:15:58.281Z,3.50
2023-03-17T10:21:03.943Z,3.17
2023-03-17T10:26:16.270Z,3.90
2023-03-17T10:31:28.496Z,3.70
2023-03-17T10:36:37.637Z,3.25
2023-03-17T10:46:54.397Z,3.58
2023-03-17T10:51:56.165Z,3.78
2023-03-17T10:57:06.190Z,3.72
2023-03-17T11:02:43.344Z,4.22
2023-03-17T11:07:45.612Z,3.83
2023-03-17T11:12:50.421Z,3.22
2023-03-17T11:17:58.841Z,3.50
2023-03-17T11:23:08.946Z,3.13
2023-03-17T11:28:19.988Z,3.95
2023-03-17T11:33:49.773Z,3.55
2023-03-17T11:39:24.154Z,3.60
2023-03-17T11:44:43.894Z,3.38
2023-03-17T11:49:53.992Z,3.70
2023-03-17T11:55:22.414Z,3.45
2023-03-17T12:00:36.812Z,3.83
2023-03-17T12:05:39.810Z,3.40
2023-03-17T12:10:50.620Z,3.72
2023-03-17T12:16:13.692Z,3.85
2023-03-17T12:21:21.250Z,3.65
2023-03-17T12:26:39.397Z,4.13
2023-03-17T12:32:05.513Z,3.53
2023-03-17T12:37:07.688Z,4.32
2023-03-17T12:42:12.027Z,3.88
2023-03-17T12:47:55.244Z,3.75
2023-03-17T12:53:26.621Z,3.15
2023-03-17T12:58:31.257Z,2.85
2023-03-17T13:03:34.195Z,3.67
2023-03-17T13:08:41.167Z,3.58
2023-03-17T13:13:55.092Z,3.10
2023-03-17T13:19:12.415Z,3.45
2023-03-17T13:24:16.968Z,3.75
2023-03-17T13:29:34.022Z,3.08
2023-03-17T13:34:53.014Z,3.38
2023-03-17T13:40:14.051Z,3.78
2023-03-17T13:45:33.996Z,3.55
2023-03-17T13:50:40.057Z,3.70
2023-03-17T13:56:02.772Z,3.25
2023-03-17T14:01:07.309Z,3.45
2023-03-17T14:06:12.829Z,3.20
2023-03-17T14:11:37.741Z,3.20
2023-03-17T14:17:07.252Z,2.90
2023-03-17T14:22:21.179Z,3.25
2023-03-17T14:27:24.676Z,3.47
2023-03-17T14:32:26.782Z,2.97
2023-03-17T14:37:28.455Z,3.65
2023-03-17T14:42:31.920Z,3.45
2023-03-17T14:47:45.498Z,3.40
2023-03-17T14:52:50.424Z,3.50
2023-03-17T14:57:52.920Z,3.95
2023-03-17T15:02:56.570Z,3.90
2023-03-17T15:07:58.428Z,3.70
2023-03-17T15:13:02.197Z,3.22
2023-03-17T15:18:10.982Z,3.78
2023-03-17T15:23:18.950Z,3.65
2023-03-17T15:28:22.528Z,3.63
2023-03-17T15:33:30.488Z,3.80
2023-03-17T15:38:33.647Z,4.28
2023-03-17T15:43:35.887Z,4.05
2023-03-17T15:48:37.712Z,4.00
2023-03-17T15:53:39.303Z,3.50
2023-03-17T15:58:41.370Z,3.67
2023-03-17T16:03:45.388Z,3.65
2023-03-17T16:08:47.883Z,3.28
2023-03-17T16:13:49.735Z,3.60
2023-03-17T16:18:52.559Z,3.20
2023-03-17T16:23:54.942Z,3.47
2023-03-17T16:28:56.904Z,3.90
2023-03-17T16:33:58.791Z,3.70
2023-03-17T16:39:01.375Z,3.88
2023-03-17T16:44:03.323Z,3.03
2023-03-17T16:49:05.610Z,3.47
2023-03-17T16:54:07.541Z,3.10
2023-03-17T16:59:21.144Z,2.50
2023-03-17T17:04:24.248Z,2.47
2023-03-17T17:09:26.064Z,2.95
2023-03-17T17:14:27.741Z,2.63
2023-03-17T17:19:29.574Z,2.70
2023-03-17T17:24:31.268Z,2.95
2023-03-17T17:29:33.131Z,2.35
2023-03-17T17:34:34.747Z,2.90
2023-03-17T17:39:36.768Z,2.70
2023-03-17T17:44:38.807Z,3.08
2023-03-17T17:49:41.343Z,2.88
2023-03-17T17:54:42.945Z,3.20
2023-03-17T17:59:44.735Z,2.75
2023-03-17T18:04:46.829Z,2.55
2023-03-17T18:09:48.503Z,2.72
2023-03-17T18:14:50.383Z,2.42
2023-03-17T18:19:55.480Z,2.58
2023-03-17T18:24:57.131Z,2.72
2023-03-17T18:29:59.072Z,2.53
2023-03-17T18:35:05.186Z,2.55
2023-03-17T18:40:15.081Z,2.25
2023-03-17T18:45:17.158Z,2.40
2023-03-17T18:50:21.841Z,2.20
2023-03-17T18:55:23.735Z,2.38
2023-03-17T19:00:26.503Z,2.17
2023-03-17T19:05:28.508Z,2.38
2023-03-17T19:10:31.439Z,2.40
2023-03-17T19:15:34.118Z,2.63
2023-03-17T19:20:36.551Z,2.15
2023-03-17T19:25:38.512Z,2.42
2023-03-17T19:30:40.350Z,1.98
2023-03-17T19:35:44.290Z,1.90
2023-03-17T19:40:46.288Z,2.70
2023-03-17T19:45:48.486Z,1.92
2023-03-17T19:50:50.550Z,2.20
2023-03-17T19:55:52.269Z,2.47
2023-03-17T20:00:54.060Z,2.08
2023-03-17T20:05:55.761Z,2.63
2023-03-17T20:10:58.069Z,2.40
2023-03-17T20:16:01.599Z,2.20
2023-03-17T20:21:05.854Z,1.90
2023-03-17T20:26:08.398Z,1.98
2023-03-17T20:31:10.341Z,2.10
2023-03-17T20:36:12.930Z,2.20
2023-03-17T20:41:17.550Z,1.77
2023-03-17T20:46:24.573Z,2.08
2023-03-17T20:51:26.686Z,2.28
2023-03-17T20:56:29.877Z,1.73
2023-03-17T21:01:36.922Z,2.03
2023-03-17T21:06:39.624Z,2.22
2023-03-17T21:11:41.674Z,2.17
2023-03-17T21:16:45.116Z,2.15
2023-03-17T21:21:46.951Z,2.13
2023-03-17T21:26:48.600Z,2.45
2023-03-17T21:31:50.652Z,2.20
2023-03-17T21:36:52.971Z,2.25
2023-03-17T21:41:55.349Z,2.28
2023-03-17T21:46:56.996Z,2.40
2023-03-17T21:51:58.696Z,2.50
2023-03-17T21:57:00.534Z,2.45
2023-03-17T22:02:02.938Z,2.63
2023-03-17T22:07:04.599Z,2.70
2023-03-17T22:12:07.176Z,2.90
2023-03-17T22:17:10.118Z,2.72
2023-03-17T22:22:11.994Z,2.85
2023-03-17T22:27:15.498Z,3.25
2023-03-17T22:32:17.303Z,3.47
2023-03-17T22:37:19.138Z,2.88
2023-03-17T22:42:21.093Z,3.15
2023-03-17T22:47:22.989Z,3.67
2023-03-17T22:52:24.630Z,3.15
2023-03-17T22:57:26.262Z,3.75
2023-03-17T23:02:27.907Z,3.60
2023-03-17T23:07:35.631Z,3.28
2023-03-17T23:12:43.916Z,3.67
2023-03-17T23:17:46.278Z,3.03
2023-03-17T23:22:48.238Z,3.35
2023-03-17T23:27:50.832Z,3.75
2023-03-17T23:32:52.676Z,3.38
2023-03-17T23:37:55.392Z,3.50
2023-03-17T23:42:57.762Z,3.47
2023-03-17T23:47:59.901Z,3.95
2023-03-17T23:53:02.524Z,3.88
2023-03-17T23:58:04.963Z,3.63
